sensor_id;sensor_type;location;lat;lon;timestamp;P1;durP1;ratioP1;P2;durP2;ratioP2
8349;SDS011;60699;48.946;8.412;2023-12-29T00:00:30;4.13;;;3.47;;
8349;SDS011;60699;48.946;8.412;2023-12-29T00:02:57;3.80;;;3.50;;
8349;SDS011;60699;48.946;8.412;2023-12-29T00:05:24;3.75;;;3.20;;
8349;SDS011;60699;48.946;8.412;2023-12-29T00:07:52;3.35;;;3.15;;
8349;SDS011;60699;48.946;8.412;2023-12-29T00:10:20;4.60;;;3.25;;
8349;SDS011;60699;48.946;8.412;2023-12-29T00:12:47;3.88;;;3.15;;
8349;SDS011;60699;48.946;8.412;2023-12-29T00:15:16;4.05;;;3.63;;
8349;SDS011;60699;48.946;8.412;2023-12-29T00:17:44;4.38;;;3.90;;
8349;SDS011;60699;48.946;8.412;2023-12-29T00:20:11;4.30;;;3.90;;
8349;SDS011;60699;48.946;8.412;2023-12-29T00:22:38;6.43;;;4.10;;
8349;SDS011;60699;48.946;8.412;2023-12-29T00:25:06;3.83;;;3.53;;
8349;SDS011;60699;48.946;8.412;2023-12-29T00:27:36;3.80;;;3.50;;
8349;SDS011;60699;48.946;8.412;2023-12-29T00:30:03;3.60;;;3.30;;
8349;SDS011;60699;48.946;8.412;2023-12-29T00:32:30;4.28;;;3.88;;
8349;SDS011;60699;48.946;8.412;2023-12-29T00:34:57;4.88;;;4.47;;
8349;SDS011;60699;48.946;8.412;2023-12-29T00:37:24;4.95;;;4.45;;
8349;SDS011;60699;48.946;8.412;2023-12-29T00:39:51;4.35;;;3.95;;
8349;SDS011;60699;48.946;8.412;2023-12-29T00:42:18;4.03;;;3.72;;
8349;SDS011;60699;48.946;8.412;2023-12-29T00:44:47;4.95;;;4.10;;
8349;SDS011;60699;48.946;8.412;2023-12-29T00:47:14;5.65;;;3.95;;
8349;SDS011;60699;48.946;8.412;2023-12-29T00:49:41;5.13;;;4.60;;
8349;SDS011;60699;48.946;8.412;2023-12-29T00:52:08;4.22;;;3.78;;
8349;SDS011;60699;48.946;8.412;2023-12-29T00:54:35;4.82;;;4.15;;
8349;SDS011;60699;48.946;8.412;2023-12-29T00:57:02;4.00;;;3.70;;
8349;SDS011;60699;48.946;8.412;2023-12-29T00:59:29;4.70;;;4.30;;
8349;SDS011;60699;48.946;8.412;2023-12-29T01:01:58;6.63;;;4.13;;
8349;SDS011;60699;48.946;8.412;2023-12-29T01:04:25;4.25;;;3.92;;
8349;SDS011;60699;48.946;8.412;2023-12-29T01:06:52;5.03;;;4.55;;
8349;SDS011;60699;48.946;8.412;2023-12-29T01:09:19;6.47;;;4.47;;
8349;SDS011;60699;48.946;8.412;2023-12-29T01:11:46;4.72;;;3.90;;
8349;SDS011;60699;48.946;8.412;2023-12-29T01:14:13;4.90;;;3.70;;
8349;SDS011;60699;48.946;8.412;2023-12-29T01:16:41;3.65;;;3.35;;
8349;SDS011;60699;48.946;8.412;2023-12-29T01:19:09;3.67;;;3.38;;
8349;SDS011;60699;48.946;8.412;2023-12-29T01:21:37;4.15;;;3.70;;
8349;SDS011;60699;48.946;8.412;2023-12-29T01:24:04;4.72;;;4.20;;
8349;SDS011;60699;48.946;8.412;2023-12-29T01:26:32;4.75;;;4.13;;
8349;SDS011;60699;48.946;8.412;2023-12-29T01:29:03;4.57;;;4.03;;
8349;SDS011;60699;48.946;8.412;2023-12-29T01:31:30;6.70;;;4.38;;
8349;SDS011;60699;48.946;8.412;2023-12-29T01:33:57;6.55;;;4.47;;
8349;SDS011;60699;48.946;8.412;2023-12-29T01:36:25;4.50;;;4.10;;
8349;SDS011;60699;48.946;8.412;2023-12-29T01:38:52;5.60;;;3.97;;
8349;SDS011;60699;48.946;8.412;2023-12-29T01:41:19;6.93;;;3.50;;
8349;SDS011;60699;48.946;8.412;2023-12-29T01:44:04;5.40;;;4.07;;
8349;SDS011;60699;48.946;8.412;2023-12-29T01:46:41;3.95;;;3.65;;
8349;SDS011;60699;48.946;8.412;2023-12-29T01:49:08;6.22;;;4.32;;
8349;SDS011;60699;48.946;8.412;2023-12-29T01:51:36;6.10;;;4.95;;
8349;SDS011;60699;48.946;8.412;2023-12-29T01:54:03;4.05;;;3.70;;
8349;SDS011;60699;48.946;8.412;2023-12-29T01:56:30;5.15;;;4.18;;
8349;SDS011;60699;48.946;8.412;2023-12-29T01:58:57;4.68;;;4.20;;
8349;SDS011;60699;48.946;8.412;2023-12-29T02:01:24;9.68;;;4.38;;
8349;SDS011;60699;48.946;8.412;2023-12-29T02:03:52;5.45;;;4.82;;
8349;SDS011;60699;48.946;8.412;2023-12-29T02:06:19;4.22;;;3.92;;
8349;SDS011;60699;48.946;8.412;2023-12-29T02:08:49;4.22;;;3.80;;
8349;SDS011;60699;48.946;8.412;2023-12-29T02:11:17;4.82;;;4.07;;
8349;SDS011;60699;48.946;8.412;2023-12-29T02:13:44;4.43;;;4.03;;
8349;SDS011;60699;48.946;8.412;2023-12-29T02:16:12;5.15;;;4.13;;
8349;SDS011;60699;48.946;8.412;2023-12-29T02:18:42;4.00;;;3.63;;
8349;SDS011;60699;48.946;8.412;2023-12-29T02:21:11;5.05;;;3.80;;
8349;SDS011;60699;48.946;8.412;2023-12-29T02:23:38;4.50;;;4.10;;
8349;SDS011;60699;48.946;8.412;2023-12-29T02:26:07;4.07;;;3.75;;
8349;SDS011;60699;48.946;8.412;2023-12-29T02:28:37;4.35;;;4.03;;
8349;SDS011;60699;48.946;8.412;2023-12-29T02:31:06;5.55;;;4.78;;
8349;SDS011;60699;48.946;8.412;2023-12-29T02:33:36;4.72;;;4.22;;
8349;SDS011;60699;48.946;8.412;2023-12-29T02:36:04;6.70;;;5.55;;
8349;SDS011;60699;48.946;8.412;2023-12-29T02:38:32;4.93;;;3.90;;
8349;SDS011;60699;48.946;8.412;2023-12-29T02:40:59;5.03;;;4.53;;
8349;SDS011;60699;48.946;8.412;2023-12-29T02:43:27;4.15;;;3.85;;
8349;SDS011;60699;48.946;8.412;2023-12-29T02:45:57;5.35;;;4.85;;
8349;SDS011;60699;48.946;8.412;2023-12-29T02:48:24;4.35;;;3.95;;
8349;SDS011;60699;48.946;8.412;2023-12-29T02:50:51;4.97;;;4.45;;
8349;SDS011;60699;48.946;8.412;2023-12-29T02:53:18;5.90;;;4.13;;
8349;SDS011;60699;48.946;8.412;2023-12-29T02:55:45;4.25;;;3.85;;
8349;SDS011;60699;48.946;8.412;2023-12-29T02:58:12;4.57;;;4.00;;
8349;SDS011;60699;48.946;8.412;2023-12-29T03:00:41;3.78;;;3.42;;
8349;SDS011;60699;48.946;8.412;2023-12-29T03:03:08;3.83;;;3.53;;
8349;SDS011;60699;48.946;8.412;2023-12-29T03:05:35;5.50;;;3.67;;
8349;SDS011;60699;48.946;8.412;2023-12-29T03:08:02;4.72;;;4.32;;
8349;SDS011;60699;48.946;8.412;2023-12-29T03:10:29;4.28;;;3.88;;
8349;SDS011;60699;48.946;8.412;2023-12-29T03:12:56;4.18;;;3.55;;
8349;SDS011;60699;48.946;8.412;2023-12-29T03:15:23;3.78;;;3.47;;
8349;SDS011;60699;48.946;8.412;2023-12-29T03:17:52;4.22;;;3.83;;
8349;SDS011;60699;48.946;8.412;2023-12-29T03:20:19;4.15;;;3.78;;
8349;SDS011;60699;48.946;8.412;2023-12-29T03:22:46;3.97;;;3.30;;
8349;SDS011;60699;48.946;8.412;2023-12-29T03:25:13;4.43;;;4.05;;
8349;SDS011;60699;48.946;8.412;2023-12-29T03:27:40;4.32;;;3.90;;
8349;SDS011;60699;48.946;8.412;2023-12-29T03:30:07;4.72;;;3.75;;
8349;SDS011;60699;48.946;8.412;2023-12-29T03:32:35;4.65;;;3.90;;
8349;SDS011;60699;48.946;8.412;2023-12-29T03:35:03;3.90;;;3.47;;
8349;SDS011;60699;48.946;8.412;2023-12-29T03:37:30;4.50;;;4.10;;
8349;SDS011;60699;48.946;8.412;2023-12-29T03:39:57;3.70;;;3.35;;
8349;SDS011;60699;48.946;8.412;2023-12-29T03:42:24;5.00;;;4.10;;
8349;SDS011;60699;48.946;8.412;2023-12-29T03:44:51;6.07;;;3.75;;
8349;SDS011;60699;48.946;8.412;2023-12-29T03:47:18;5.97;;;4.15;;
8349;SDS011;60699;48.946;8.412;2023-12-29T03:49:45;3.33;;;3.05;;
8349;SDS011;60699;48.946;8.412;2023-12-29T03:52:14;4.75;;;4.07;;
8349;SDS011;60699;48.946;8.412;2023-12-29T03:54:41;3.90;;;3.60;;
8349;SDS011;60699;48.946;8.412;2023-12-29T03:57:08;3.75;;;3.45;;
8349;SDS011;60699;48.946;8.412;2023-12-29T03:59:36;4.05;;;3.45;;
8349;SDS011;60699;48.946;8.412;2023-12-29T04:02:03;5.55;;;3.92;;
8349;SDS011;60699;48.946;8.412;2023-12-29T04:04:30;3.88;;;3.40;;
8349;SDS011;60699;48.946;8.412;2023-12-29T04:06:57;4.35;;;3.95;;
8349;SDS011;60699;48.946;8.412;2023-12-29T04:09:26;3.65;;;3.35;;
8349;SDS011;60699;48.946;8.412;2023-12-29T04:11:53;3.95;;;3.40;;
8349;SDS011;60699;48.946;8.412;2023-12-29T04:14:20;5.10;;;3.60;;
8349;SDS011;60699;48.946;8.412;2023-12-29T04:16:47;4.45;;;4.05;;
8349;SDS011;60699;48.946;8.412;2023-12-29T04:19:14;7.07;;;4.05;;
8349;SDS011;60699;48.946;8.412;2023-12-29T04:21:41;4.40;;;3.30;;
8349;SDS011;60699;48.946;8.412;2023-12-29T04:24:08;4.50;;;3.60;;
8349;SDS011;60699;48.946;8.412;2023-12-29T04:26:36;3.80;;;3.47;;
8349;SDS011;60699;48.946;8.412;2023-12-29T04:29:03;3.83;;;3.42;;
8349;SDS011;60699;48.946;8.412;2023-12-29T04:31:30;3.60;;;3.30;;
8349;SDS011;60699;48.946;8.412;2023-12-29T04:33:57;4.63;;;4.22;;
8349;SDS011;60699;48.946;8.412;2023-12-29T04:36:24;3.55;;;3.20;;
8349;SDS011;60699;48.946;8.412;2023-12-29T04:38:51;5.65;;;3.75;;
8349;SDS011;60699;48.946;8.412;2023-12-29T04:41:18;5.00;;;4.03;;
8349;SDS011;60699;48.946;8.412;2023-12-29T04:43:47;3.63;;;3.33;;
8349;SDS011;60699;48.946;8.412;2023-12-29T04:46:14;4.32;;;3.92;;
8349;SDS011;60699;48.946;8.412;2023-12-29T04:48:41;3.90;;;3.50;;
8349;SDS011;60699;48.946;8.412;2023-12-29T04:51:08;3.97;;;3.58;;
8349;SDS011;60699;48.946;8.412;2023-12-29T04:53:35;4.60;;;4.15;;
8349;SDS011;60699;48.946;8.412;2023-12-29T04:56:02;4.80;;;4.40;;
8349;SDS011;60699;48.946;8.412;2023-12-29T04:58:29;3.95;;;3.55;;
8349;SDS011;60699;48.946;8.412;2023-12-29T05:00:57;3.50;;;3.30;;
8349;SDS011;60699;48.946;8.412;2023-12-29T05:03:25;4.53;;;4.03;;
8349;SDS011;60699;48.946;8.412;2023-12-29T05:05:52;4.20;;;3.80;;
8349;SDS011;60699;48.946;8.412;2023-12-29T05:08:19;5.20;;;4.55;;
8349;SDS011;60699;48.946;8.412;2023-12-29T05:10:46;6.00;;;5.50;;
8349;SDS011;60699;48.946;8.412;2023-12-29T05:13:13;4.32;;;3.92;;
8349;SDS011;60699;48.946;8.412;2023-12-29T05:15:40;4.25;;;3.85;;
8349;SDS011;60699;48.946;8.412;2023-12-29T05:18:08;4.20;;;3.80;;
8349;SDS011;60699;48.946;8.412;2023-12-29T05:20:36;5.28;;;3.90;;
8349;SDS011;60699;48.946;8.412;2023-12-29T05:23:03;5.85;;;3.47;;
8349;SDS011;60699;48.946;8.412;2023-12-29T05:25:30;3.83;;;3.50;;
8349;SDS011;60699;48.946;8.412;2023-12-29T05:27:57;4.32;;;3.90;;
8349;SDS011;60699;48.946;8.412;2023-12-29T05:30:24;3.38;;;3.08;;
8349;SDS011;60699;48.946;8.412;2023-12-29T05:32:52;4.13;;;3.72;;
8349;SDS011;60699;48.946;8.412;2023-12-29T05:35:21;5.65;;;4.00;;
8349;SDS011;60699;48.946;8.412;2023-12-29T05:37:48;4.18;;;3.25;;
8349;SDS011;60699;48.946;8.412;2023-12-29T05:40:15;4.38;;;3.83;;
8349;SDS011;60699;48.946;8.412;2023-12-29T05:42:42;4.22;;;3.92;;
8349;SDS011;60699;48.946;8.412;2023-12-29T05:45:09;3.90;;;3.50;;
8349;SDS011;60699;48.946;8.412;2023-12-29T05:47:36;3.65;;;3.35;;
8349;SDS011;60699;48.946;8.412;2023-12-29T05:50:03;4.65;;;4.25;;
8349;SDS011;60699;48.946;8.412;2023-12-29T05:52:31;4.32;;;3.45;;
8349;SDS011;60699;48.946;8.412;2023-12-29T05:54:59;4.47;;;4.10;;
8349;SDS011;60699;48.946;8.412;2023-12-29T05:57:26;4.53;;;3.90;;
8349;SDS011;60699;48.946;8.412;2023-12-29T05:59:53;5.07;;;4.63;;
8349;SDS011;60699;48.946;8.412;2023-12-29T06:02:20;5.25;;;4.80;;
8349;SDS011;60699;48.946;8.412;2023-12-29T06:04:47;5.00;;;3.90;;
8349;SDS011;60699;48.946;8.412;2023-12-29T06:07:14;5.40;;;4.90;;
8349;SDS011;60699;48.946;8.412;2023-12-29T06:09:42;4.63;;;4.18;;
8349;SDS011;60699;48.946;8.412;2023-12-29T06:12:09;4.13;;;3.83;;
8349;SDS011;60699;48.946;8.412;2023-12-29T06:14:36;4.78;;;4.10;;
8349;SDS011;60699;48.946;8.412;2023-12-29T06:17:03;5.45;;;4.18;;
8349;SDS011;60699;48.946;8.412;2023-12-29T06:19:30;4.30;;;3.75;;
8349;SDS011;60699;48.946;8.412;2023-12-29T06:21:57;5.50;;;4.97;;
8349;SDS011;60699;48.946;8.412;2023-12-29T06:24:24;5.25;;;4.47;;
8349;SDS011;60699;48.946;8.412;2023-12-29T06:26:53;5.28;;;4.78;;
8349;SDS011;60699;48.946;8.412;2023-12-29T06:29:20;4.15;;;3.85;;
8349;SDS011;60699;48.946;8.412;2023-12-29T06:31:47;4.10;;;3.70;;
8349;SDS011;60699;48.946;8.412;2023-12-29T06:34:14;4.43;;;4.03;;
8349;SDS011;60699;48.946;8.412;2023-12-29T06:36:41;3.90;;;3.60;;
8349;SDS011;60699;48.946;8.412;2023-12-29T06:39:08;5.68;;;4.20;;
8349;SDS011;60699;48.946;8.412;2023-12-29T06:41:35;4.20;;;3.80;;
8349;SDS011;60699;48.946;8.412;2023-12-29T06:44:04;5.57;;;4.28;;
8349;SDS011;60699;48.946;8.412;2023-12-29T06:46:31;3.80;;;3.50;;
8349;SDS011;60699;48.946;8.412;2023-12-29T06:48:58;3.90;;;3.50;;
8349;SDS011;60699;48.946;8.412;2023-12-29T06:51:25;3.40;;;3.20;;
8349;SDS011;60699;48.946;8.412;2023-12-29T06:53:52;4.18;;;3.33;;
8349;SDS011;60699;48.946;8.412;2023-12-29T06:56:19;4.35;;;3.55;;
8349;SDS011;60699;48.946;8.412;2023-12-29T06:58:46;5.00;;;3.95;;
8349;SDS011;60699;48.946;8.412;2023-12-29T07:01:15;4.07;;;3.50;;
8349;SDS011;60699;48.946;8.412;2023-12-29T07:03:42;4.10;;;3.75;;
8349;SDS011;60699;48.946;8.412;2023-12-29T07:06:09;4.15;;;3.60;;
8349;SDS011;60699;48.946;8.412;2023-12-29T07:08:36;3.85;;;3.03;;
8349;SDS011;60699;48.946;8.412;2023-12-29T07:11:03;3.60;;;3.22;;
8349;SDS011;60699;48.946;8.412;2023-12-29T07:13:30;4.18;;;3.38;;
8349;SDS011;60699;48.946;8.412;2023-12-29T07:15:57;3.65;;;3.35;;
8349;SDS011;60699;48.946;8.412;2023-12-29T07:18:26;4.25;;;3.60;;
8349;SDS011;60699;48.946;8.412;2023-12-29T07:20:53;3.75;;;3.47;;
8349;SDS011;60699;48.946;8.412;2023-12-29T07:23:20;4.43;;;4.03;;
8349;SDS011;60699;48.946;8.412;2023-12-29T07:25:47;3.95;;;3.55;;
8349;SDS011;60699;48.946;8.412;2023-12-29T07:28:14;4.53;;;3.80;;
8349;SDS011;60699;48.946;8.412;2023-12-29T07:30:42;3.95;;;3.22;;
8349;SDS011;60699;48.946;8.412;2023-12-29T07:33:10;4.18;;;3.80;;
8349;SDS011;60699;48.946;8.412;2023-12-29T07:35:38;4.57;;;4.15;;
8349;SDS011;60699;48.946;8.412;2023-12-29T07:38:05;4.05;;;3.42;;
8349;SDS011;60699;48.946;8.412;2023-12-29T07:40:32;3.63;;;3.40;;
8349;SDS011;60699;48.946;8.412;2023-12-29T07:42:59;5.30;;;4.55;;
8349;SDS011;60699;48.946;8.412;2023-12-29T07:45:26;5.15;;;3.83;;
8349;SDS011;60699;48.946;8.412;2023-12-29T07:47:53;6.75;;;4.65;;
8349;SDS011;60699;48.946;8.412;2023-12-29T07:50:20;3.83;;;3.53;;
8349;SDS011;60699;48.946;8.412;2023-12-29T07:52:48;4.45;;;4.05;;
8349;SDS011;60699;48.946;8.412;2023-12-29T07:55:15;4.50;;;4.10;;
8349;SDS011;60699;48.946;8.412;2023-12-29T07:57:42;5.03;;;4.53;;
8349;SDS011;60699;48.946;8.412;2023-12-29T08:00:12;4.63;;;3.55;;
8349;SDS011;60699;48.946;8.412;2023-12-29T08:02:39;4.30;;;4.00;;
8349;SDS011;60699;48.946;8.412;2023-12-29T08:05:06;4.93;;;4.53;;
8349;SDS011;60699;48.946;8.412;2023-12-29T08:07:34;4.25;;;3.90;;
8349;SDS011;60699;48.946;8.412;2023-12-29T08:10:03;5.18;;;3.80;;
8349;SDS011;60699;48.946;8.412;2023-12-29T08:12:30;4.30;;;3.88;;
8349;SDS011;60699;48.946;8.412;2023-12-29T08:14:58;5.10;;;3.28;;
8349;SDS011;60699;48.946;8.412;2023-12-29T08:17:25;4.95;;;3.20;;
8349;SDS011;60699;48.946;8.412;2023-12-29T08:19:53;3.78;;;3.47;;
8349;SDS011;60699;48.946;8.412;2023-12-29T08:22:20;4.15;;;3.85;;
8349;SDS011;60699;48.946;8.412;2023-12-29T08:24:47;3.83;;;3.50;;
8349;SDS011;60699;48.946;8.412;2023-12-29T08:27:21;4.45;;;4.05;;
8349;SDS011;60699;48.946;8.412;2023-12-29T08:29:49;4.70;;;4.07;;
8349;SDS011;60699;48.946;8.412;2023-12-29T08:32:16;3.40;;;3.10;;
8349;SDS011;60699;48.946;8.412;2023-12-29T08:34:43;4.38;;;3.47;;
8349;SDS011;60699;48.946;8.412;2023-12-29T08:37:10;4.63;;;4.32;;
8349;SDS011;60699;48.946;8.412;2023-12-29T08:39:40;3.60;;;3.30;;
8349;SDS011;60699;48.946;8.412;2023-12-29T08:42:08;4.60;;;4.20;;
8349;SDS011;60699;48.946;8.412;2023-12-29T08:44:36;3.63;;;3.33;;
8349;SDS011;60699;48.946;8.412;2023-12-29T08:47:03;4.63;;;3.20;;
8349;SDS011;60699;48.946;8.412;2023-12-29T08:49:33;3.65;;;3.35;;
8349;SDS011;60699;48.946;8.412;2023-12-29T08:52:00;3.90;;;3.60;;
8349;SDS011;60699;48.946;8.412;2023-12-29T08:54:27;5.05;;;3.70;;
8349;SDS011;60699;48.946;8.412;2023-12-29T08:56:54;3.80;;;3.50;;
8349;SDS011;60699;48.946;8.412;2023-12-29T08:59:21;3.90;;;3.60;;
8349;SDS011;60699;48.946;8.412;2023-12-29T09:01:49;4.70;;;3.10;;
8349;SDS011;60699;48.946;8.412;2023-12-29T09:04:16;3.97;;;3.30;;
8349;SDS011;60699;48.946;8.412;2023-12-29T09:06:43;4.60;;;4.28;;
8349;SDS011;60699;48.946;8.412;2023-12-29T09:09:10;3.30;;;3.05;;
8349;SDS011;60699;48.946;8.412;2023-12-29T09:11:38;4.10;;;3.70;;
8349;SDS011;60699;48.946;8.412;2023-12-29T09:14:05;4.03;;;3.42;;
8349;SDS011;60699;48.946;8.412;2023-12-29T09:16:32;3.50;;;2.95;;
8349;SDS011;60699;48.946;8.412;2023-12-29T09:19:00;4.00;;;3.10;;
8349;SDS011;60699;48.946;8.412;2023-12-29T09:21:27;3.75;;;3.05;;
8349;SDS011;60699;48.946;8.412;2023-12-29T09:23:54;3.97;;;3.00;;
8349;SDS011;60699;48.946;8.412;2023-12-29T09:26:21;3.33;;;3.05;;
8349;SDS011;60699;48.946;8.412;2023-12-29T09:28:48;3.75;;;3.42;;
8349;SDS011;60699;48.946;8.412;2023-12-29T09:31:15;4.18;;;3.88;;
8349;SDS011;60699;48.946;8.412;2023-12-29T09:33:43;3.60;;;3.30;;
8349;SDS011;60699;48.946;8.412;2023-12-29T09:36:11;3.20;;;2.88;;
8349;SDS011;60699;48.946;8.412;2023-12-29T09:38:38;3.25;;;3.03;;
8349;SDS011;60699;48.946;8.412;2023-12-29T09:41:08;3.22;;;2.92;;
8349;SDS011;60699;48.946;8.412;2023-12-29T09:43:35;4.28;;;3.10;;
8349;SDS011;60699;48.946;8.412;2023-12-29T09:46:03;3.35;;;3.05;;
8349;SDS011;60699;48.946;8.412;2023-12-29T09:48:30;2.88;;;2.60;;
8349;SDS011;60699;48.946;8.412;2023-12-29T09:50:58;7.93;;;2.60;;
8349;SDS011;60699;48.946;8.412;2023-12-29T09:53:27;2.67;;;2.47;;
8349;SDS011;60699;48.946;8.412;2023-12-29T09:55:54;5.30;;;3.22;;
8349;SDS011;60699;48.946;8.412;2023-12-29T09:58:22;2.67;;;2.58;;
8349;SDS011;60699;48.946;8.412;2023-12-29T10:00:50;3.30;;;2.95;;
8349;SDS011;60699;48.946;8.412;2023-12-29T10:03:18;3.00;;;2.80;;
8349;SDS011;60699;48.946;8.412;2023-12-29T10:05:45;3.22;;;3.00;;
8349;SDS011;60699;48.946;8.412;2023-12-29T10:08:14;3.03;;;2.83;;
8349;SDS011;60699;48.946;8.412;2023-12-29T10:10:43;2.85;;;2.65;;
8349;SDS011;60699;48.946;8.412;2023-12-29T10:13:12;2.92;;;2.60;;
8349;SDS011;60699;48.946;8.412;2023-12-29T10:15:42;2.95;;;2.70;;
8349;SDS011;60699;48.946;8.412;2023-12-29T10:18:18;4.55;;;3.20;;
8349;SDS011;60699;48.946;8.412;2023-12-29T10:20:49;2.95;;;2.75;;
8349;SDS011;60699;48.946;8.412;2023-12-29T10:23:18;2.25;;;2.15;;
8349;SDS011;60699;48.946;8.412;2023-12-29T10:25:47;2.20;;;2.00;;
8349;SDS011;60699;48.946;8.412;2023-12-29T10:28:14;2.72;;;2.53;;
8349;SDS011;60699;48.946;8.412;2023-12-29T10:30:43;2.92;;;2.55;;
8349;SDS011;60699;48.946;8.412;2023-12-29T10:33:10;2.25;;;2.05;;
8349;SDS011;60699;48.946;8.412;2023-12-29T10:35:37;2.72;;;2.50;;
8349;SDS011;60699;48.946;8.412;2023-12-29T10:38:08;2.03;;;1.92;;
8349;SDS011;60699;48.946;8.412;2023-12-29T10:40:36;2.78;;;2.38;;
8349;SDS011;60699;48.946;8.412;2023-12-29T10:43:05;2.53;;;2.33;;
8349;SDS011;60699;48.946;8.412;2023-12-29T10:45:33;2.38;;;2.17;;
8349;SDS011;60699;48.946;8.412;2023-12-29T10:48:01;2.47;;;2.28;;
8349;SDS011;60699;48.946;8.412;2023-12-29T10:50:28;2.05;;;1.90;;
8349;SDS011;60699;48.946;8.412;2023-12-29T10:53:10;2.05;;;1.95;;
8349;SDS011;60699;48.946;8.412;2023-12-29T10:55:37;2.25;;;2.08;;
8349;SDS011;60699;48.946;8.412;2023-12-29T10:58:06;2.30;;;2.10;;
8349;SDS011;60699;48.946;8.412;2023-12-29T11:00:33;2.10;;;2.00;;
8349;SDS011;60699;48.946;8.412;2023-12-29T11:03:00;2.08;;;1.98;;
8349;SDS011;60699;48.946;8.412;2023-12-29T11:05:27;2.10;;;1.80;;
8349;SDS011;60699;48.946;8.412;2023-12-29T11:07:54;2.30;;;2.20;;
8349;SDS011;60699;48.946;8.412;2023-12-29T11:10:23;2.42;;;2.22;;
8349;SDS011;60699;48.946;8.412;2023-12-29T11:12:52;2.00;;;1.90;;
8349;SDS011;60699;48.946;8.412;2023-12-29T11:15:20;3.05;;;2.85;;
8349;SDS011;60699;48.946;8.412;2023-12-29T11:17:48;3.05;;;2.50;;
8349;SDS011;60699;48.946;8.412;2023-12-29T11:20:17;2.45;;;2.25;;
8349;SDS011;60699;48.946;8.412;2023-12-29T11:22:45;2.50;;;2.00;;
8349;SDS011;60699;48.946;8.412;2023-12-29T11:25:13;2.60;;;2.00;;
8349;SDS011;60699;48.946;8.412;2023-12-29T11:27:41;2.00;;;1.90;;
8349;SDS011;60699;48.946;8.412;2023-12-29T11:30:09;3.17;;;2.72;;
8349;SDS011;60699;48.946;8.412;2023-12-29T11:32:40;3.33;;;3.03;;
8349;SDS011;60699;48.946;8.412;2023-12-29T11:35:12;2.95;;;1.95;;
8349;SDS011;60699;48.946;8.412;2023-12-29T11:37:56;2.58;;;2.38;;
8349;SDS011;60699;48.946;8.412;2023-12-29T11:40:26;1.90;;;1.80;;
8349;SDS011;60699;48.946;8.412;2023-12-29T11:42:57;1.98;;;1.88;;
8349;SDS011;60699;48.946;8.412;2023-12-29T11:45:28;2.40;;;2.15;;
8349;SDS011;60699;48.946;8.412;2023-12-29T11:47:58;2.65;;;2.45;;
8349;SDS011;60699;48.946;8.412;2023-12-29T11:50:28;2.40;;;2.20;;
8349;SDS011;60699;48.946;8.412;2023-12-29T11:52:55;2.10;;;1.90;;
8349;SDS011;60699;48.946;8.412;2023-12-29T11:55:24;2.35;;;2.20;;
8349;SDS011;60699;48.946;8.412;2023-12-29T11:57:54;2.78;;;2.58;;
8349;SDS011;60699;48.946;8.412;2023-12-29T12:00:28;2.35;;;2.20;;
8349;SDS011;60699;48.946;8.412;2023-12-29T12:03:14;2.63;;;2.42;;
8349;SDS011;60699;48.946;8.412;2023-12-29T12:05:44;4.05;;;2.65;;
8349;SDS011;60699;48.946;8.412;2023-12-29T12:08:11;2.67;;;2.47;;
8349;SDS011;60699;48.946;8.412;2023-12-29T12:10:52;2.65;;;2.40;;
8349;SDS011;60699;48.946;8.412;2023-12-29T12:16:01;2.92;;;2.60;;
8349;SDS011;60699;48.946;8.412;2023-12-29T12:18:30;2.70;;;2.50;;
8349;SDS011;60699;48.946;8.412;2023-12-29T12:20:57;3.25;;;2.72;;
8349;SDS011;60699;48.946;8.412;2023-12-29T12:23:25;3.13;;;2.67;;
8349;SDS011;60699;48.946;8.412;2023-12-29T12:25:56;2.60;;;2.50;;
8349;SDS011;60699;48.946;8.412;2023-12-29T12:28:24;3.10;;;2.90;;
8349;SDS011;60699;48.946;8.412;2023-12-29T12:30:51;2.58;;;2.38;;
8349;SDS011;60699;48.946;8.412;2023-12-29T12:33:19;2.70;;;2.50;;
8349;SDS011;60699;48.946;8.412;2023-12-29T12:35:47;2.55;;;2.30;;
8349;SDS011;60699;48.946;8.412;2023-12-29T12:38:25;2.55;;;2.35;;
8349;SDS011;60699;48.946;8.412;2023-12-29T12:40:55;2.42;;;2.33;;
8349;SDS011;60699;48.946;8.412;2023-12-29T12:43:22;2.95;;;2.65;;
8349;SDS011;60699;48.946;8.412;2023-12-29T12:45:53;3.28;;;2.55;;
8349;SDS011;60699;48.946;8.412;2023-12-29T12:48:21;2.58;;;2.38;;
8349;SDS011;60699;48.946;8.412;2023-12-29T12:50:50;2.88;;;2.67;;
8349;SDS011;60699;48.946;8.412;2023-12-29T12:53:19;2.95;;;2.50;;
8349;SDS011;60699;48.946;8.412;2023-12-29T12:55:47;2.33;;;2.13;;
8349;SDS011;60699;48.946;8.412;2023-12-29T12:58:15;3.25;;;2.65;;
8349;SDS011;60699;48.946;8.412;2023-12-29T13:00:42;2.70;;;2.47;;
8349;SDS011;60699;48.946;8.412;2023-12-29T13:03:09;2.20;;;2.10;;
8349;SDS011;60699;48.946;8.412;2023-12-29T13:05:36;3.30;;;2.95;;
8349;SDS011;60699;48.946;8.412;2023-12-29T13:08:05;2.30;;;2.20;;
8349;SDS011;60699;48.946;8.412;2023-12-29T13:10:33;2.75;;;2.53;;
8349;SDS011;60699;48.946;8.412;2023-12-29T13:13:00;2.67;;;2.47;;
8349;SDS011;60699;48.946;8.412;2023-12-29T13:15:27;3.78;;;1.95;;
8349;SDS011;60699;48.946;8.412;2023-12-29T13:17:55;4.43;;;2.42;;
8349;SDS011;60699;48.946;8.412;2023-12-29T13:20:22;2.20;;;2.10;;
8349;SDS011;60699;48.946;8.412;2023-12-29T13:22:49;2.25;;;2.15;;
8349;SDS011;60699;48.946;8.412;2023-12-29T13:25:20;2.15;;;2.05;;
8349;SDS011;60699;48.946;8.412;2023-12-29T13:27:47;4.05;;;2.25;;
8349;SDS011;60699;48.946;8.412;2023-12-29T13:30:15;2.30;;;2.20;;
8349;SDS011;60699;48.946;8.412;2023-12-29T13:32:43;1.80;;;1.70;;
8349;SDS011;60699;48.946;8.412;2023-12-29T13:35:11;2.10;;;1.90;;
8349;SDS011;60699;48.946;8.412;2023-12-29T13:37:44;3.17;;;2.47;;
8349;SDS011;60699;48.946;8.412;2023-12-29T13:40:14;1.90;;;1.80;;
8349;SDS011;60699;48.946;8.412;2023-12-29T13:42:45;2.05;;;1.95;;
8349;SDS011;60699;48.946;8.412;2023-12-29T13:45:12;2.20;;;2.00;;
8349;SDS011;60699;48.946;8.412;2023-12-29T13:47:41;2.42;;;2.00;;
8349;SDS011;60699;48.946;8.412;2023-12-29T13:50:08;1.98;;;1.88;;
8349;SDS011;60699;48.946;8.412;2023-12-29T13:52:36;2.10;;;1.92;;
8349;SDS011;60699;48.946;8.412;2023-12-29T13:55:04;1.98;;;1.85;;
8349;SDS011;60699;48.946;8.412;2023-12-29T13:57:31;1.80;;;1.70;;
8349;SDS011;60699;48.946;8.412;2023-12-29T14:02:42;1.92;;;1.67;;
8349;SDS011;60699;48.946;8.412;2023-12-29T14:05:11;2.47;;;1.85;;
8349;SDS011;60699;48.946;8.412;2023-12-29T14:07:40;2.65;;;1.63;;
8349;SDS011;60699;48.946;8.412;2023-12-29T14:10:10;2.13;;;1.92;;
8349;SDS011;60699;48.946;8.412;2023-12-29T14:12:37;1.80;;;1.70;;
8349;SDS011;60699;48.946;8.412;2023-12-29T14:15:04;2.17;;;2.08;;
8349;SDS011;60699;48.946;8.412;2023-12-29T14:17:31;2.33;;;2.17;;
8349;SDS011;60699;48.946;8.412;2023-12-29T14:20:00;2.55;;;2.35;;
8349;SDS011;60699;48.946;8.412;2023-12-29T14:22:31;1.95;;;1.85;;
8349;SDS011;60699;48.946;8.412;2023-12-29T14:24:59;1.52;;;1.42;;
8349;SDS011;60699;48.946;8.412;2023-12-29T14:27:27;1.80;;;1.70;;
8349;SDS011;60699;48.946;8.412;2023-12-29T14:29:55;1.95;;;1.85;;
8349;SDS011;60699;48.946;8.412;2023-12-29T14:32:23;2.10;;;2.00;;
8349;SDS011;60699;48.946;8.412;2023-12-29T14:34:50;2.08;;;1.88;;
8349;SDS011;60699;48.946;8.412;2023-12-29T14:37:21;2.13;;;2.00;;
8349;SDS011;60699;48.946;8.412;2023-12-29T14:39:50;1.50;;;1.40;;
8349;SDS011;60699;48.946;8.412;2023-12-29T14:42:17;1.88;;;1.67;;
8349;SDS011;60699;48.946;8.412;2023-12-29T14:44:45;1.77;;;1.60;;
8349;SDS011;60699;48.946;8.412;2023-12-29T14:47:13;1.95;;;1.75;;
8349;SDS011;60699;48.946;8.412;2023-12-29T14:49:40;2.88;;;2.00;;
8349;SDS011;60699;48.946;8.412;2023-12-29T14:52:07;2.35;;;1.55;;
8349;SDS011;60699;48.946;8.412;2023-12-29T14:54:36;3.15;;;2.10;;
8349;SDS011;60699;48.946;8.412;2023-12-29T14:57:04;1.90;;;1.80;;
8349;SDS011;60699;48.946;8.412;2023-12-29T14:59:31;2.50;;;2.30;;
8349;SDS011;60699;48.946;8.412;2023-12-29T15:01:58;1.90;;;1.80;;
8349;SDS011;60699;48.946;8.412;2023-12-29T15:04:26;3.55;;;2.63;;
8349;SDS011;60699;48.946;8.412;2023-12-29T15:06:56;4.00;;;2.15;;
8349;SDS011;60699;48.946;8.412;2023-12-29T15:09:23;2.60;;;2.42;;